createdAt,value
2018-09-25T00:02:12.190Z,-0.80
2018-09-25T00:04:45.538Z,-0.86
2018-09-25T00:07:18.927Z,-0.89
2018-09-25T00:09:52.315Z,-0.92
2018-09-25T00:12:25.618Z,-0.97
2018-09-25T00:14:59.017Z,-1.00
2018-09-25T00:17:32.449Z,-1.06
2018-09-25T00:20:05.701Z,-1.11
2018-09-25T00:22:39.220Z,-1.16
2018-09-25T00:25:12.709Z,-1.19
2018-09-25T00:27:46.033Z,-1.24
2018-09-25T00:30:19.265Z,-1.27
2018-09-25T00:32:52.579Z,-1.34
2018-09-25T00:35:25.953Z,-1.38
2018-09-25T00:37:59.365Z,-1.44
2018-09-25T00:40:32.685Z,-1.48
2018-09-25T00:43:06.032Z,-1.50
2018-09-25T00:45:39.443Z,-1.54
2018-09-25T00:48:12.771Z,-1.60
2018-09-25T00:50:46.156Z,-1.65
2018-09-25T00:53:19.394Z,-1.73
2018-09-25T00:55:52.880Z,-1.77
2018-09-25T00:58:26.277Z,-1.85
2018-09-25T01:00:59.710Z,-1.89
2018-09-25T01:03:33.040Z,-1.94
2018-09-25T01:06:06.437Z,-1.97
2018-09-25T01:08:39.732Z,-1.96
2018-09-25T01:11:13.129Z,-1.96
2018-09-25T01:13:46.556Z,-1.97
2018-09-25T01:16:20.033Z,-1.99
2018-09-25T01:18:53.436Z,-2.01
2018-09-25T01:21:26.743Z,-2.06
2018-09-25T01:24:00.096Z,-2.08
2018-09-25T01:26:33.471Z,-2.14
2018-09-25T01:29:06.851Z,-2.21
2018-09-25T01:31:40.094Z,-2.25
2018-09-25T01:34:13.499Z,-2.24
2018-09-25T01:36:46.889Z,-2.25
2018-09-25T01:39:20.441Z,-2.26
2018-09-25T01:41:53.637Z,-2.27
2018-09-25T01:44:27.007Z,-2.27
2018-09-25T01:47:00.297Z,-2.33
2018-09-25T01:49:33.786Z,-2.41
2018-09-25T01:52:07.175Z,-2.46
2018-09-25T01:54:40.601Z,-2.50
2018-09-25T01:57:14.082Z,-2.51
2018-09-25T01:59:47.485Z,-2.49
2018-09-25T02:02:20.765Z,-2.46
2018-09-25T02:04:54.181Z,-2.41
2018-09-25T02:07:27.510Z,-2.42
2018-09-25T02:10:00.810Z,-2.43
2018-09-25T02:12:34.073Z,-2.56
2018-09-25T02:15:08.109Z,-2.69
2018-09-25T02:17:41.469Z,-2.77
2018-09-25T02:20:15.005Z,-2.79
2018-09-25T02:22:48.477Z,-2.83
2018-09-25T02:25:21.961Z,-2.87
2018-09-25T02:27:55.489Z,-2.90
2018-09-25T02:30:28.847Z,-2.91
2018-09-25T02:33:02.245Z,-2.93
2018-09-25T02:35:35.501Z,-2.94
2018-09-25T02:38:08.874Z,-2.97
2018-09-25T02:40:42.116Z,-3.00
2018-09-25T02:43:15.425Z,-2.98
2018-09-25T02:45:48.827Z,-2.99
2018-09-25T02:48:22.181Z,-2.99
2018-09-25T02:50:55.585Z,-3.00
2018-09-25T02:53:28.861Z,-2.98
2018-09-25T02:56:02.234Z,-2.93
2018-09-25T02:58:35.561Z,-2.92
2018-09-25T03:01:08.843Z,-2.81
2018-09-25T03:03:42.165Z,-2.76
2018-09-25T03:06:15.525Z,-2.76
2018-09-25T03:08:48.754Z,-2.77
2018-09-25T03:11:22.200Z,-2.76
2018-09-25T03:13:55.641Z,-2.77
2018-09-25T03:16:29.110Z,-2.76
2018-09-25T03:19:02.573Z,-2.74
2018-09-25T03:21:35.843Z,-2.73
2018-09-25T03:24:09.379Z,-2.72
2018-09-25T03:26:42.634Z,-2.67
2018-09-25T03:29:15.930Z,-2.64
2018-09-25T03:31:49.437Z,-2.57
2018-09-25T03:34:22.790Z,-2.52
2018-09-25T03:36:56.169Z,-2.45
2018-09-25T03:39:29.587Z,-2.39
2018-09-25T03:42:02.947Z,-2.17
2018-09-25T03:44:36.287Z,-1.99
2018-09-25T03:47:09.793Z,-1.92
2018-09-25T03:49:43.292Z,-1.81
2018-09-25T03:52:16.693Z,-1.88
2018-09-25T03:54:50.078Z,-1.92
2018-09-25T03:57:23.429Z,-1.93
2018-09-25T03:59:56.850Z,-1.92
2018-09-25T04:02:30.287Z,-1.95
2018-09-25T04:05:03.654Z,-1.90
2018-09-25T04:07:36.994Z,-1.84
2018-09-25T04:10:10.352Z,-1.72
2018-09-25T04:12:43.754Z,-1.63
2018-09-25T04:15:17.162Z,-1.62
2018-09-25T04:17:50.410Z,-1.51
2018-09-25T04:20:23.843Z,-1.40
2018-09-25T04:22:57.166Z,-1.34
2018-09-25T04:25:30.650Z,-1.32
2018-09-25T04:28:04.045Z,-1.27
2018-09-25T04:30:37.396Z,-1.26
2018-09-25T04:33:10.755Z,-1.22
2018-09-25T04:35:44.154Z,-1.22
2018-09-25T04:38:17.682Z,-1.18
2018-09-25T04:40:51.134Z,-1.05
2018-09-25T04:43:24.546Z,-0.88
2018-09-25T04:45:57.933Z,-0.83
2018-09-25T04:48:31.528Z,-0.82
2018-09-25T04:51:04.820Z,-0.78
2018-09-25T04:53:38.169Z,-0.76
2018-09-25T04:56:11.516Z,-0.70
2018-09-25T04:58:45.026Z,-0.68
2018-09-25T05:01:18.277Z,-0.61
2018-09-25T05:03:51.565Z,-0.61
2018-09-25T05:06:24.886Z,-0.57
2018-09-25T05:08:58.360Z,-0.54
2018-09-25T05:11:31.841Z,-0.53
2018-09-25T05:14:05.240Z,-0.47
2018-09-25T05:16:39.028Z,-0.39
2018-09-25T05:19:12.303Z,-0.26
2018-09-25T05:21:45.637Z,-0.19
2018-09-25T05:24:19.042Z,-0.10
2018-09-25T05:26:52.528Z,-0.05
2018-09-25T05:29:25.801Z,0.03
2018-09-25T05:31:59.294Z,0.14
2018-09-25T05:34:32.709Z,0.28
2018-09-25T05:37:05.922Z,0.34
2018-09-25T05:39:39.254Z,0.41
2018-09-25T05:42:12.731Z,0.46
2018-09-25T05:44:46.031Z,0.52
2018-09-25T05:47:19.389Z,0.57
2018-09-25T05:49:52.769Z,0.62
2018-09-25T05:52:26.069Z,0.66
2018-09-25T05:54:59.488Z,0.87
2018-09-25T05:57:32.873Z,1.18
2018-09-25T06:00:06.273Z,1.49
2018-09-25T06:02:39.671Z,1.84
2018-09-25T06:05:13.226Z,2.17
2018-09-25T06:07:46.571Z,2.44
2018-09-25T06:10:19.993Z,2.63
2018-09-25T06:12:53.474Z,2.89
2018-09-25T06:15:26.848Z,3.17
2018-09-25T06:18:00.345Z,3.49
2018-09-25T06:20:33.645Z,3.83
2018-09-25T06:23:07.058Z,4.11
2018-09-25T06:25:40.426Z,4.26
2018-09-25T06:28:13.831Z,4.68
2018-09-25T06:30:47.244Z,4.97
2018-09-25T06:33:20.690Z,5.23
2018-09-25T06:35:54.094Z,5.50
2018-09-25T06:38:27.470Z,5.59
2018-09-25T06:41:01.040Z,5.54
2018-09-25T06:43:34.494Z,5.71
2018-09-25T06:46:07.890Z,6.01
2018-09-25T06:48:41.257Z,6.25
2018-09-25T06:51:14.662Z,6.50
2018-09-25T06:53:48.058Z,6.85
2018-09-25T06:56:21.493Z,7.05
2018-09-25T06:58:54.835Z,7.39
2018-09-25T07:01:28.267Z,7.53
2018-09-25T07:04:01.638Z,7.85
2018-09-25T07:06:35.029Z,8.00
2018-09-25T07:09:08.557Z,8.33
2018-09-25T07:11:41.867Z,8.50
2018-09-25T07:14:15.106Z,8.79
2018-09-25T07:16:48.529Z,9.00
2018-09-25T07:19:21.923Z,9.37
2018-09-25T07:21:55.357Z,9.56
2018-09-25T07:24:28.700Z,9.66
2018-09-25T07:27:02.014Z,9.80
2018-09-25T07:29:35.438Z,10.02
2018-09-25T07:32:08.897Z,10.26
2018-09-25T07:34:42.254Z,10.61
2018-09-25T07:37:15.578Z,10.74
2018-09-25T07:39:49.035Z,10.94
2018-09-25T07:42:22.425Z,10.85
2018-09-25T07:44:55.806Z,10.85
2018-09-25T07:47:29.069Z,10.80
2018-09-25T07:50:02.506Z,10.89
2018-09-25T07:52:35.706Z,10.82
2018-09-25T07:55:08.959Z,11.18
2018-09-25T07:57:42.309Z,11.37
2018-09-25T08:00:15.893Z,11.47
2018-09-25T08:02:49.223Z,11.49
2018-09-25T08:05:22.706Z,11.83
2018-09-25T08:07:56.055Z,11.82
2018-09-25T08:10:29.603Z,12.08
2018-09-25T08:13:03.061Z,12.27
2018-09-25T08:15:36.591Z,12.38
2018-09-25T08:18:10.024Z,12.49
2018-09-25T08:20:43.573Z,12.52
2018-09-25T08:23:16.947Z,12.49
2018-09-25T08:25:50.210Z,12.78
2018-09-25T08:28:23.639Z,13.18
2018-09-25T08:30:57.129Z,13.43
2018-09-25T08:33:30.532Z,13.06
2018-09-25T08:36:03.901Z,13.28
2018-09-25T08:38:37.209Z,13.24
2018-09-25T08:41:11.696Z,13.09
2018-09-25T08:43:45.077Z,13.10
2018-09-25T08:46:18.398Z,13.08
2018-09-25T08:48:51.767Z,13.23
2018-09-25T08:51:32.079Z,13.38
2018-09-25T08:54:05.502Z,13.29
2018-09-25T08:56:38.939Z,13.18
2018-09-25T08:59:12.359Z,13.04
2018-09-25T09:01:45.887Z,13.09
2018-09-25T09:04:19.161Z,12.99
2018-09-25T09:06:52.622Z,12.59
2018-09-25T09:09:25.917Z,12.26
2018-09-25T09:11:59.300Z,12.23
2018-09-25T09:14:32.597Z,12.18
2018-09-25T09:17:06.186Z,12.19
2018-09-25T09:19:39.559Z,12.33
2018-09-25T09:22:12.855Z,12.42
2018-09-25T09:24:46.366Z,12.46
2018-09-25T09:27:19.683Z,12.47
2018-09-25T09:29:53.045Z,12.76
2018-09-25T09:32:26.607Z,12.92
2018-09-25T09:35:00.054Z,13.19
2018-09-25T09:37:33.478Z,13.11
2018-09-25T09:40:06.913Z,12.98
2018-09-25T09:42:40.338Z,13.07
2018-09-25T09:45:13.592Z,12.96
2018-09-25T09:47:47.029Z,12.79
2018-09-25T09:50:20.554Z,12.93
2018-09-25T09:52:53.981Z,13.04
2018-09-25T09:55:27.302Z,13.20
2018-09-25T09:58:00.677Z,13.09
2018-09-25T10:00:34.065Z,13.23
2018-09-25T10:03:07.631Z,13.17
2018-09-25T10:05:41.129Z,13.15
2018-09-25T10:08:14.342Z,13.16
2018-09-25T10:10:47.823Z,13.12
2018-09-25T10:13:21.194Z,12.92
2018-09-25T10:15:54.544Z,12.68
2018-09-25T10:18:27.762Z,12.36
2018-09-25T10:21:01.176Z,12.06
2018-09-25T10:23:34.670Z,12.11
2018-09-25T10:26:08.078Z,12.30
2018-09-25T10:28:41.519Z,12.37
2018-09-25T10:31:14.881Z,12.45
2018-09-25T10:33:48.124Z,12.13
2018-09-25T10:36:21.560Z,11.62
2018-09-25T10:38:54.976Z,11.63
2018-09-25T10:41:28.201Z,11.72
2018-09-25T10:44:01.563Z,11.61
2018-09-25T10:46:34.934Z,11.41
2018-09-25T10:49:08.410Z,11.30
2018-09-25T10:51:41.818Z,11.24
2018-09-25T10:54:15.256Z,11.34
2018-09-25T10:56:48.662Z,11.30
2018-09-25T10:59:21.994Z,11.30
2018-09-25T11:01:55.306Z,11.33
2018-09-25T11:04:28.782Z,11.26
2018-09-25T11:07:02.262Z,11.33
2018-09-25T11:09:35.637Z,11.35
2018-09-25T11:12:08.897Z,11.20
2018-09-25T11:14:42.378Z,11.11
2018-09-25T11:17:15.605Z,11.15
2018-09-25T11:19:49.099Z,11.20
2018-09-25T11:22:22.510Z,11.25
2018-09-25T11:24:55.948Z,11.08
2018-09-25T11:27:29.299Z,10.69
2018-09-25T11:30:02.721Z,10.69
2018-09-25T11:32:36.110Z,10.67
2018-09-25T11:35:09.625Z,10.76
2018-09-25T11:37:42.985Z,10.85
2018-09-25T11:40:16.462Z,10.92
2018-09-25T11:42:49.879Z,10.86
2018-09-25T11:45:23.266Z,10.92
2018-09-25T11:47:56.593Z,10.88
2018-09-25T11:50:29.889Z,10.81
2018-09-25T11:53:03.254Z,10.78
2018-09-25T11:55:36.618Z,10.80
2018-09-25T11:58:10.158Z,10.63
2018-09-25T12:00:43.574Z,10.43
2018-09-25T12:03:16.866Z,10.33
2018-09-25T12:05:50.222Z,10.19
2018-09-25T12:08:23.487Z,10.17
2018-09-25T12:10:56.750Z,10.23
2018-09-25T12:13:30.234Z,10.17
2018-09-25T12:16:03.582Z,10.10
2018-09-25T12:18:36.930Z,10.02
2018-09-25T12:21:10.334Z,9.99
2018-09-25T12:23:43.705Z,9.99
2018-09-25T12:26:17.046Z,9.99
2018-09-25T12:28:50.416Z,9.93
2018-09-25T12:31:23.722Z,10.03
2018-09-25T12:33:57.030Z,10.04
2018-09-25T12:36:30.546Z,10.11
2018-09-25T12:39:03.876Z,10.06
2018-09-25T12:41:37.324Z,10.13
2018-09-25T12:44:10.806Z,10.05
2018-09-25T12:46:44.325Z,9.93
2018-09-25T12:49:17.557Z,9.93
2018-09-25T12:51:50.915Z,9.93
2018-09-25T12:54:24.304Z,10.02
2018-09-25T12:56:57.686Z,10.06
2018-09-25T12:59:31.209Z,10.01
2018-09-25T13:02:04.470Z,9.88
2018-09-25T13:04:37.919Z,9.84
2018-09-25T13:07:11.421Z,9.80
2018-09-25T13:09:44.818Z,9.77
2018-09-25T13:12:18.101Z,9.72
2018-09-25T13:14:51.345Z,9.78
2018-09-25T13:17:24.792Z,9.77
2018-09-25T13:19:58.153Z,9.73
2018-09-25T13:22:31.446Z,9.70
2018-09-25T13:25:04.865Z,9.73
2018-09-25T13:27:38.172Z,9.70
2018-09-25T13:30:11.546Z,9.74
2018-09-25T13:32:45.002Z,9.78
2018-09-25T13:35:18.329Z,9.82
2018-09-25T13:37:51.746Z,9.92
2018-09-25T13:40:25.162Z,10.02
2018-09-25T13:42:58.413Z,10.04
2018-09-25T13:45:31.735Z,10.05
2018-09-25T13:48:05.262Z,9.99
2018-09-25T13:50:38.649Z,9.92
2018-09-25T13:53:12.285Z,9.90
2018-09-25T13:55:45.690Z,9.90
2018-09-25T13:58:19.206Z,9.91
2018-09-25T14:00:52.617Z,9.86
2018-09-25T14:03:26.076Z,9.81
2018-09-25T14:05:59.366Z,9.81
2018-09-25T14:08:32.809Z,9.77
2018-09-25T14:11:06.345Z,9.79
2018-09-25T14:13:39.793Z,9.83
2018-09-25T14:16:13.049Z,9.87
2018-09-25T14:18:46.427Z,9.91
2018-09-25T14:21:19.963Z,9.91
2018-09-25T14:23:53.457Z,9.97
2018-09-25T14:26:26.688Z,10.05
2018-09-25T14:29:00.279Z,10.14
2018-09-25T14:31:33.785Z,10.23
2018-09-25T14:34:07.123Z,10.26
2018-09-25T14:36:40.390Z,10.30
2018-09-25T14:39:14.128Z,10.29
2018-09-25T14:41:47.502Z,10.25
2018-09-25T14:44:20.771Z,10.24
2018-09-25T14:46:54.197Z,10.19
2018-09-25T14:49:27.566Z,10.04
2018-09-25T14:52:01.026Z,10.02
2018-09-25T14:54:34.466Z,9.95
2018-09-25T14:57:07.752Z,9.92
2018-09-25T14:59:41.173Z,9.80
2018-09-25T15:02:14.553Z,9.77
2018-09-25T15:04:48.020Z,9.73
2018-09-25T15:07:21.370Z,9.67
2018-09-25T15:09:54.737Z,9.64
2018-09-25T15:12:28.090Z,9.59
2018-09-25T15:15:01.445Z,9.45
2018-09-25T15:17:34.808Z,9.48
2018-09-25T15:20:08.236Z,9.43
2018-09-25T15:22:41.514Z,9.33
2018-09-25T15:25:15.073Z,9.23
2018-09-25T15:27:48.590Z,9.19
2018-09-25T15:30:21.966Z,9.13
2018-09-25T15:32:55.421Z,9.03
2018-09-25T15:35:28.870Z,9.04
2018-09-25T15:38:02.158Z,9.05
2018-09-25T15:40:35.584Z,8.97
2018-09-25T15:43:08.865Z,8.90
2018-09-25T15:45:42.230Z,8.84
2018-09-25T15:48:15.760Z,8.74
2018-09-25T15:50:49.106Z,8.63
2018-09-25T15:53:22.302Z,8.59
2018-09-25T15:55:55.669Z,8.55
2018-09-25T15:58:29.017Z,8.55
2018-09-25T16:01:02.379Z,8.50
2018-09-25T16:03:35.802Z,8.44
2018-09-25T16:06:09.238Z,8.42
2018-09-25T16:08:42.774Z,8.37
2018-09-25T16:11:16.423Z,8.28
2018-09-25T16:13:49.965Z,8.21
2018-09-25T16:16:23.377Z,8.15
2018-09-25T16:18:56.903Z,8.11
2018-09-25T16:21:30.357Z,8.09
2018-09-25T16:24:03.934Z,7.94
2018-09-25T16:26:37.289Z,7.85
2018-09-25T16:29:10.831Z,7.84
2018-09-25T16:31:44.196Z,7.78
2018-09-25T16:34:17.565Z,7.78
2018-09-25T16:36:50.853Z,7.71
2018-09-25T16:39:24.193Z,7.69
2018-09-25T16:41:57.506Z,7.59
2018-09-25T16:44:30.869Z,7.48
2018-09-25T16:47:04.237Z,7.38
2018-09-25T16:49:37.690Z,7.33
2018-09-25T16:52:10.945Z,7.34
2018-09-25T16:54:44.298Z,7.29
2018-09-25T16:57:17.678Z,7.21
2018-09-25T16:59:50.918Z,7.18
2018-09-25T17:02:24.366Z,7.21
2018-09-25T17:04:57.850Z,7.28
2018-09-25T17:07:31.350Z,7.30
2018-09-25T17:10:04.733Z,7.24
2018-09-25T17:12:38.117Z,7.28
2018-09-25T17:15:11.805Z,7.27
2018-09-25T17:17:45.209Z,7.16
2018-09-25T17:20:18.574Z,7.03
2018-09-25T17:22:52.024Z,6.96
2018-09-25T17:25:25.418Z,6.94
2018-09-25T17:27:58.801Z,6.86
2018-09-25T17:30:32.334Z,6.82
2018-09-25T17:33:05.837Z,6.71
2018-09-25T17:35:39.257Z,6.57
2018-09-25T17:38:12.615Z,6.50
2018-09-25T17:40:45.938Z,6.43
2018-09-25T17:43:19.449Z,6.43
2018-09-25T17:45:54.186Z,6.43
2018-09-25T17:48:27.663Z,6.42
2018-09-25T17:51:01.789Z,6.35
2018-09-25T17:53:35.089Z,6.28
2018-09-25T17:56:08.462Z,6.21
2018-09-25T17:58:41.755Z,6.15
2018-09-25T18:01:15.082Z,6.07
2018-09-25T18:03:48.729Z,5.99
2018-09-25T18:06:22.119Z,5.96
2018-09-25T18:08:55.526Z,5.84
2018-09-25T18:11:28.870Z,5.80
2018-09-25T18:14:02.186Z,5.88
2018-09-25T18:16:35.714Z,5.84
2018-09-25T18:19:09.120Z,5.84
2018-09-25T18:21:42.731Z,5.76
2018-09-25T18:24:16.131Z,5.78
2018-09-25T18:26:49.757Z,5.88
2018-09-25T18:29:23.114Z,5.87
2018-09-25T18:31:56.397Z,5.97
2018-09-25T18:34:29.925Z,6.10
2018-09-25T18:37:03.354Z,6.28
2018-09-25T18:39:36.632Z,6.43
2018-09-25T18:42:10.101Z,6.54
2018-09-25T18:44:43.509Z,6.74
2018-09-25T18:47:16.906Z,6.79
2018-09-25T18:49:50.411Z,6.83
2018-09-25T18:52:23.960Z,6.88
2018-09-25T18:54:57.400Z,7.01
2018-09-25T18:57:30.877Z,7.02
2018-09-25T19:00:04.215Z,6.99
2018-09-25T19:02:37.554Z,6.93
2018-09-25T19:05:11.117Z,6.98
2018-09-25T19:07:44.506Z,6.97
2018-09-25T19:10:17.893Z,6.83
2018-09-25T19:12:51.205Z,6.78
2018-09-25T19:15:24.565Z,6.73
2018-09-25T19:17:57.989Z,6.73
2018-09-25T19:20:31.319Z,6.65
2018-09-25T19:23:04.795Z,6.52
2018-09-25T19:25:38.130Z,6.50
2018-09-25T19:28:12.361Z,6.45
2018-09-25T19:30:45.891Z,6.45
2018-09-25T19:33:19.229Z,6.37
2018-09-25T19:35:52.576Z,6.34
2018-09-25T19:38:25.970Z,6.33
2018-09-25T19:40:59.417Z,6.22
2018-09-25T19:43:32.693Z,6.17
2018-09-25T19:46:06.188Z,6.12
2018-09-25T19:48:39.758Z,6.11
2018-09-25T19:51:13.130Z,6.06
2018-09-25T19:53:46.363Z,6.05
2018-09-25T19:56:19.816Z,6.06
2018-09-25T19:58:53.209Z,6.08
2018-09-25T20:01:26.546Z,6.16
2018-09-25T20:03:59.882Z,6.19
2018-09-25T20:06:33.278Z,6.26
2018-09-25T20:09:06.685Z,6.34
2018-09-25T20:11:40.094Z,6.34
2018-09-25T20:14:13.474Z,6.35
2018-09-25T20:16:46.911Z,6.33
2018-09-25T20:19:20.497Z,6.37
2018-09-25T20:21:54.056Z,6.30
2018-09-25T20:24:27.610Z,6.30
2018-09-25T20:27:00.993Z,6.23
2018-09-25T20:29:34.553Z,6.33
2018-09-25T20:32:07.965Z,6.32
2018-09-25T20:34:41.303Z,6.33
2018-09-25T20:37:14.574Z,6.35
2018-09-25T20:39:47.978Z,6.35
2018-09-25T20:42:21.510Z,6.30
2018-09-25T20:44:54.742Z,6.27
2018-09-25T20:47:28.090Z,6.26
2018-09-25T20:50:01.541Z,6.28
2018-09-25T20:52:34.919Z,6.38
2018-09-25T20:55:08.293Z,6.42
2018-09-25T20:57:41.742Z,6.41
2018-09-25T21:00:15.077Z,6.43
2018-09-25T21:02:48.445Z,6.45
2018-09-25T21:05:21.761Z,6.46
2018-09-25T21:07:55.013Z,6.50
2018-09-25T21:10:28.482Z,6.54
2018-09-25T21:13:01.734Z,6.52
2018-09-25T21:15:35.288Z,6.51
2018-09-25T21:18:08.724Z,6.47
2018-09-25T21:20:42.120Z,6.53
2018-09-25T21:23:15.478Z,6.55
2018-09-25T21:25:48.862Z,6.61
2018-09-25T21:28:22.220Z,6.70
2018-09-25T21:30:55.688Z,6.73
2018-09-25T21:33:29.100Z,6.73
2018-09-25T21:36:02.552Z,6.76
2018-09-25T21:38:35.734Z,6.78
2018-09-25T21:41:09.206Z,6.80
2018-09-25T21:43:42.711Z,6.76
2018-09-25T21:46:16.205Z,6.79
2018-09-25T21:48:49.635Z,6.81
2018-09-25T21:51:23.127Z,6.83
2018-09-25T21:53:56.282Z,6.86
2018-09-25T21:56:29.661Z,6.85
2018-09-25T21:59:03.077Z,6.92
2018-09-25T22:04:18.322Z,6.98
2018-09-25T22:09:38.271Z,6.95
2018-09-25T22:12:14.229Z,6.97
2018-09-25T22:14:51.291Z,7.00
2018-09-25T22:17:28.333Z,7.01
2018-09-25T22:20:05.364Z,6.99
2018-09-25T22:22:40.787Z,7.01
2018-09-25T22:25:14.696Z,7.03
2018-09-25T22:27:50.400Z,7.01
2018-09-25T22:30:26.407Z,7.00
2018-09-25T22:33:00.413Z,6.99
2018-09-25T22:35:35.552Z,7.00
2018-09-25T22:38:10.997Z,7.07
2018-09-25T22:40:45.931Z,7.13
2018-09-25T22:43:20.100Z,7.14
2018-09-25T22:45:55.380Z,7.16
2018-09-25T22:48:31.441Z,7.20
2018-09-25T22:51:05.195Z,7.19
2018-09-25T22:53:41.405Z,7.24
2018-09-25T22:56:17.059Z,7.26
2018-09-25T22:58:56.360Z,7.21
2018-09-25T23:01:31.090Z,7.22
2018-09-25T23:04:14.033Z,7.21
2018-09-25T23:06:49.365Z,7.21
2018-09-25T23:09:23.690Z,7.22
2018-09-25T23:12:04.511Z,7.18
2018-09-25T23:14:46.057Z,7.18
2018-09-25T23:17:22.259Z,7.19
2018-09-25T23:19:57.193Z,7.17
2018-09-25T23:22:30.933Z,7.16
2018-09-25T23:25:04.658Z,7.13
2018-09-25T23:27:38.031Z,7.08
2018-09-25T23:30:11.560Z,7.01
2018-09-25T23:32:44.996Z,6.97
2018-09-25T23:35:18.321Z,6.95
2018-09-25T23:37:51.648Z,6.94
2018-09-25T23:40:31.078Z,6.93
2018-09-25T23:43:06.410Z,6.90
2018-09-25T23:45:39.716Z,6.86
2018-09-25T23:48:13.295Z,6.85
2018-09-25T23:50:48.213Z,6.84
2018-09-25T23:53:33.724Z,6.80
2018-09-25T23:56:07.100Z,6.75
2018-09-25T23:59:38.304Z,6.67
